Hillhead, South Dakota
Current Conditions -  °F | °C
As of 6:15 PM on Sunday 23 Nov 2014 (Local Time) from KGWR Reporting Station
Overcast Overcast  
Wind Chill: 11°   Ceiling: 1400
Heat Index: 27°   Visibility: 10mi
Dew Point: 21°   Wind: 28mph
Humidity: 80%   Direction: 320°NW
Pressure: 29.56"   Gusts: 33mph
Location:  45.8363°N, 97.3443°W
Report Text: KGWR 240015Z AUTO 32024G29KT 10SM OVC014 M03/M06 A2956 RMK A01 P000
Loading
Personal Weather Stations






























Interactive Weather Map New forecast layout! Learn more

10-Day Weather Forecast

Advertisements
Track Severe Weather on mobile